Time;durP1;ratioP1;P1;durP2;ratioP2;P2;SDS_P1;SDS_P2;PMS_P1;PMS_P2;Temp;Humidity;BMP_temperature;BMP_pressure;BME280_temperature;BME280_humidity;BME280_pressure;Samples;Min_cycle;Max_cycle;Signal;HPM_P1;HPM_P2
2022/07/06 00:01:25;;;;;;;2.42;1.10;;;;;;;12.15;nan;102460.34;5053552;28;20025;-62
2022/07/06 00:03:50;;;;;;;4.38;1.17;;;;;;;12.47;nan;102510.97;5053575;28;20041;-61
2022/07/06 00:06:17;;;;;;;3.08;1.05;;;;;;;12.53;nan;102523.22;5052328;28;20051;-63
2022/07/06 00:08:43;;;;;;;3.55;1.00;;;;;;;12.54;nan;102525.84;5052162;28;20437;-61
2022/07/06 00:11:08;;;;;;;4.32;1.20;;;;;;;12.57;nan;102531.09;5053300;28;20075;-62
2022/07/06 00:13:33;;;;;;;3.65;0.73;;;;;;;11.98;nan;102423.63;5053186;28;20033;-63
2022/07/06 00:15:59;;;;;;;2.30;1.08;;;;;;;12.23;nan;102461.16;5053499;28;20257;-62
2022/07/06 00:18:24;;;;;;;2.95;0.90;;;;;;;12.53;nan;102517.94;5053290;28;20037;-63
2022/07/06 00:20:49;;;;;;;3.83;1.15;;;;;;;12.38;nan;102508.44;5053098;28;20029;-62
2022/07/06 00:23:15;;;;;;;3.65;1.00;;;;;;;12.43;nan;102514.56;5053125;28;20107;-63
2022/07/06 00:25:40;;;;;;;2.13;0.85;;;;;;;12.44;nan;102521.56;5053298;28;20033;-62
2022/07/06 00:28:05;;;;;;;3.45;1.05;;;;;;;12.06;nan;102445.50;5052923;28;20389;-61
2022/07/06 00:30:30;;;;;;;5.47;1.08;;;;;;;12.09;nan;102447.22;5052972;28;20041;-61
2022/07/06 00:32:58;;;;;;;2.40;1.38;;;;;;;12.07;nan;102462.22;5052889;28;20044;-63
2022/07/06 00:35:24;;;;;;;4.90;0.88;;;;;;;12.18;nan;102478.78;5052871;28;20163;-62
2022/07/06 00:37:49;;;;;;;4.22;1.23;;;;;;;11.97;nan;102448.25;5053351;28;20036;-61
2022/07/06 00:40:14;;;;;;;3.50;0.77;;;;;;;12.01;nan;102465.81;5051616;28;20037;-61
2022/07/06 00:42:45;;;;;;;1.80;0.75;;;;;;;12.22;nan;102502.50;5051516;28;20041;-61
2022/07/06 00:45:11;;;;;;;1.42;0.82;;;;;;;12.16;nan;102509.63;5053298;28;20028;-61
2022/07/06 00:47:37;;;;;;;1.45;1.08;;;;;;;11.93;nan;102474.72;5052674;28;20029;-62
2022/07/06 00:50:18;;;;;;;2.63;0.88;;;;;;;12.09;nan;102518.50;5052723;28;20098;-61
2022/07/06 00:52:54;;;;;;;1.85;0.70;;;;;;;12.13;nan;102507.91;5051561;28;20112;-61
2022/07/06 00:55:25;;;;;;;1.83;0.90;;;;;;;12.15;nan;102515.78;5052592;28;20131;-62
2022/07/06 00:57:50;;;;;;;;;;;;;;;12.15;nan;102508.75;5052937;28;20392;-62
2022/07/06 01:00:18;;;;;;;2.15;0.88;;;;;;;12.16;nan;102510.50;5052463;28;19917;-61
2022/07/06 01:02:44;;;;;;;1.00;0.80;;;;;;;12.17;nan;102503.47;5052396;28;20043;-62
2022/07/06 01:05:11;;;;;;;2.38;0.65;;;;;;;12.00;nan;102486.94;5052337;28;20372;-62
2022/07/06 01:07:38;;;;;;;4.63;0.77;;;;;;;12.16;nan;102507.88;5051347;28;20051;-61
2022/07/06 01:10:04;;;;;;;6.38;0.70;;;;;;;11.76;nan;102438.84;5052268;28;20037;-64
2022/07/06 01:12:31;;;;;;;2.92;0.82;;;;;;;12.18;nan;102506.06;5050914;28;20036;-60
2022/07/06 01:14:56;;;;;;;2.50;0.60;;;;;;;12.13;nan;102501.75;5050971;28;20064;-60
2022/07/06 01:17:22;;;;;;;6.68;1.15;;;;;;;12.03;nan;102482.50;5052115;28;20067;-63
2022/07/06 01:19:47;;;;;;;4.03;1.00;;;;;;;11.93;nan;102470.31;5052169;28;20037;-63
2022/07/06 01:22:13;;;;;;;3.67;0.75;;;;;;;11.79;nan;102440.59;5050319;28;20064;-63
2022/07/06 01:24:38;;;;;;;1.95;0.90;;;;;;;12.17;nan;102499.03;5052260;28;20395;-61
2022/07/06 01:27:05;;;;;;;2.55;0.82;;;;;;;12.16;nan;102497.31;5050749;28;20456;-62
2022/07/06 01:29:31;;;;;;;3.10;0.80;;;;;;;12.13;nan;102496.47;5050672;28;20029;-62
2022/07/06 01:31:57;;;;;;;1.55;1.05;;;;;;;11.77;nan;102445.88;5050629;28;20388;-64
2022/07/06 01:34:22;;;;;;;3.15;0.65;;;;;;;12.09;nan;102497.38;5050209;28;20029;-60
2022/07/06 01:36:47;;;;;;;5.68;1.00;;;;;;;12.09;nan;102507.94;5052025;28;20032;-61
2022/07/06 01:39:13;;;;;;;2.63;1.00;;;;;;;12.05;nan;102499.22;5050579;28;20032;-61
2022/07/06 01:41:39;;;;;;;0.68;0.50;;;;;;;12.03;nan;102506.25;5050432;28;20111;-62
2022/07/06 01:44:04;;;;;;;1.77;0.70;;;;;;;11.91;nan;102482.63;5050636;28;20052;-64
2022/07/06 01:46:30;;;;;;;1.63;0.68;;;;;;;11.58;nan;102438.16;5051726;28;20064;-62
2022/07/06 01:48:56;;;;;;;2.22;0.90;;;;;;;11.91;nan;102501.09;5051979;28;20033;-60
2022/07/06 01:51:22;;;;;;;1.48;0.90;;;;;;;11.85;nan;102490.63;5051820;28;20037;-61
2022/07/06 01:53:48;;;;;;;1.67;0.80;;;;;;;11.82;nan;102493.31;5051360;28;20472;-62
2022/07/06 01:56:13;;;;;;;3.30;0.90;;;;;;;11.76;nan;102493.41;5051453;28;20039;-63
2022/07/06 01:58:39;;;;;;;2.88;0.70;;;;;;;11.36;nan;102426.09;5051494;28;20033;-61
2022/07/06 02:01:09;;;;;;;2.05;0.65;;;;;;;11.69;nan;102482.03;5051761;28;20033;-62
2022/07/06 02:03:34;;;;;;;2.28;0.98;;;;;;;11.75;nan;102495.16;5051376;28;20033;-61
2022/07/06 02:06:00;;;;;;;5.65;0.85;;;;;;;11.77;nan;102492.47;5051567;28;20043;-61
2022/07/06 02:08:25;;;;;;;3.72;1.02;;;;;;;11.43;nan;102433.94;5050098;28;20041;-61
2022/07/06 02:10:51;;;;;;;2.88;0.90;;;;;;;11.61;nan;102469.78;5051491;28;20481;-64
2022/07/06 02:13:16;;;;;;;13.10;0.98;;;;;;;11.69;nan;102484.66;5049869;28;20033;-61
2022/07/06 02:15:42;;;;;;;2.30;1.00;;;;;;;11.65;nan;102482.03;5051359;28;20037;-62
2022/07/06 02:18:07;;;;;;;1.45;0.70;;;;;;;11.58;nan;102477.72;5049823;28;20160;-62
2022/07/06 02:20:33;;;;;;;1.35;0.80;;;;;;;11.58;nan;102491.78;5051377;28;20116;-61
2022/07/06 02:22:58;;;;;;;1.48;0.60;;;;;;;11.03;nan;102398.31;5049993;28;20126;-63
2022/07/06 02:25:23;;;;;;;2.67;0.75;;;;;;;11.55;nan;102494.47;5051181;28;20373;-62
2022/07/06 02:27:49;;;;;;;1.88;0.60;;;;;;;11.52;nan;102489.22;5049586;28;20057;-61
2022/07/06 02:30:14;;;;;;;1.55;0.82;;;;;;;11.48;nan;102487.47;5051288;28;20421;-61
2022/07/06 02:32:39;;;;;;;1.00;0.50;;;;;;;;;;5051163;28;20056;-62
2022/07/06 02:35:04;;;;;;;1.02;0.80;;;;;;;;;;5051287;28;20033;-61
2022/07/06 02:37:30;;;;;;;1.05;0.60;;;;;;;;;;5051156;28;20473;-62
2022/07/06 02:39:55;;;;;;;1.97;0.77;;;;;;;;;;5049815;28;20044;-61
2022/07/06 02:42:20;;;;;;;2.13;0.80;;;;;;;;;;5050934;28;20291;-59
2022/07/06 02:44:45;;;;;;;3.75;1.15;;;;;;;;;;5051337;28;20329;-60
2022/07/06 02:47:10;;;;;;;3.13;0.90;;;;;;;;;;5052152;28;20075;-61
2022/07/06 02:49:36;;;;;;;4.97;0.87;;;;;;;;;;5053532;28;20418;-61
2022/07/06 02:52:01;;;;;;;0.83;0.83;;;;;;;;;;5055008;28;20846;-61
2022/07/06 02:54:26;;;;;;;2.03;1.20;;;;;;;;;;5054957;28;20041;-60
2022/07/06 02:56:53;;;;;;;2.17;0.80;;;;;;;;;;5054848;28;20104;-61
2022/07/06 02:59:18;;;;;;;2.80;1.00;;;;;;;;;;5053780;28;20619;-61
2022/07/06 03:01:43;;;;;;;2.78;0.98;;;;;;;;;;5055067;28;20040;-61
2022/07/06 03:04:08;;;;;;;2.23;0.80;;;;;;;;;;5054681;28;20065;-60
2022/07/06 03:06:34;;;;;;;1.77;0.87;;;;;;;;;;5054830;28;20404;-61
2022/07/06 03:09:00;;;;;;;1.73;1.10;;;;;;;;;;5054656;28;20040;-62
2022/07/06 03:11:25;;;;;;;1.33;0.75;;;;;;;;;;5054675;28;20025;-62
2022/07/06 03:13:50;;;;;;;3.30;0.70;;;;;;;;;;5054357;28;20031;-62
2022/07/06 03:16:16;;;;;;;3.20;0.73;;;;;;;;;;5054742;28;20275;-60
2022/07/06 03:18:41;;;;;;;1.93;0.90;;;;;;;;;;5054446;28;20395;-62
2022/07/06 03:21:06;;;;;;;2.27;0.83;;;;;;;;;;5053329;28;20033;-61
2022/07/06 03:23:31;;;;;;;1.67;0.90;;;;;;;;;;5054277;28;20044;-61
2022/07/06 03:25:56;;;;;;;3.03;0.77;;;;;;;;;;5053982;28;20074;-63
2022/07/06 03:28:22;;;;;;;2.80;1.00;;;;;;;;;;5054520;28;20366;-64
2022/07/06 03:30:47;;;;;;;2.63;0.70;;;;;;;;;;5054269;28;20033;-61
2022/07/06 03:33:12;;;;;;;1.53;0.70;;;;;;;;;;5054129;28;20380;-60
2022/07/06 03:35:37;;;;;;;2.57;0.77;;;;;;;;;;5054285;28;20025;-60
2022/07/06 03:38:03;;;;;;;1.43;0.70;;;;;;;;;;5053113;28;20044;-60
2022/07/06 03:40:28;;;;;;;2.85;1.00;;;;;;;;;;5054077;28;20037;-62
2022/07/06 03:42:53;;;;;;;2.60;0.90;;;;;;;;;;5053739;28;20045;-61
2022/07/06 03:45:18;;;;;;;2.97;0.47;;;;;;;;;;5054269;28;20041;-61
2022/07/06 03:47:43;;;;;;;2.55;1.02;;;;;;;;;;5054244;28;20307;-61
2022/07/06 03:50:09;;;;;;;2.47;1.00;;;;;;;;;;5054096;28;20039;-61
2022/07/06 03:52:35;;;;;;;2.72;0.93;;;;;;;;;;5053960;28;20035;-61
2022/07/06 03:55:00;;;;;;;1.58;0.90;;;;;;;;;;5052556;28;20582;-61
2022/07/06 03:57:26;;;;;;;1.33;0.60;;;;;;;;;;5051846;28;20051;-62
2022/07/06 03:59:51;;;;;;;2.83;0.82;;;;;;;;;;5053644;28;20041;-62
2022/07/06 04:02:16;;;;;;;1.05;0.70;;;;;;;;;;5053580;28;20483;-61
2022/07/06 04:04:42;;;;;;;1.90;0.70;;;;;;;;;;5053703;28;20107;-62
2022/07/06 04:07:07;;;;;;;1.33;0.88;;;;;;;;;;5053494;28;20286;-61
2022/07/06 04:09:32;;;;;;;0.93;0.77;;;;;;;;;;5053457;28;20057;-61
2022/07/06 04:11:57;;;;;;;4.23;0.80;;;;;;;;;;5053386;28;20319;-62
2022/07/06 04:14:23;;;;;;;0.80;0.63;;;;;;;;;;5053231;28;20433;-61
2022/07/06 04:16:48;;;;;;;0.70;0.60;;;;;;;;;;5053454;28;20298;-61
2022/07/06 04:19:13;;;;;;;2.00;0.80;;;;;;;;;;5053156;28;20279;-61
2022/07/06 04:21:38;;;;;;;0.65;0.60;;;;;;;;;;5053113;28;20025;-61
2022/07/06 04:24:04;;;;;;;2.13;0.70;;;;;;;;;;5051810;28;20032;-62
2022/07/06 04:26:29;;;;;;;2.65;0.80;;;;;;;;;;5051404;28;20045;-61
2022/07/06 04:28:54;;;;;;;3.20;0.70;;;;;;;;;;5053117;28;20408;-59
2022/07/06 04:31:20;;;;;;;1.33;0.57;;;;;;;;;;5051695;28;20029;-60
2022/07/06 04:33:45;;;;;;;1.45;0.70;;;;;;;;;;5052826;28;20086;-60
2022/07/06 04:36:10;;;;;;;1.47;0.70;;;;;;;;;;5052850;28;20029;-61
2022/07/06 04:38:36;;;;;;;3.92;0.60;;;;;;;;;;5052650;28;20087;-60
2022/07/06 04:41:01;;;;;;;2.33;0.83;;;;;;;;;;5052506;28;20036;-60
2022/07/06 04:43:26;;;;;;;2.40;0.73;;;;;;;;;;5052962;28;20082;-62
2022/07/06 04:45:51;;;;;;;4.33;0.70;;;;;;;;;;5051793;28;20033;-62
2022/07/06 04:48:17;;;;;;;0.90;0.70;;;;;;;;;;5052757;28;20021;-59
2022/07/06 04:50:42;;;;;;;5.57;0.85;;;;;;;;;;5052616;28;20278;-59
2022/07/06 04:53:07;;;;;;;1.13;0.70;;;;;;;;;;5052597;28;20043;-60
2022/07/06 04:55:32;;;;;;;1.27;0.73;;;;;;;;;;5052671;28;20294;-61
2022/07/06 04:57:57;;;;;;;0.57;0.57;;;;;;;;;;5052678;28;20029;-62
2022/07/06 05:00:23;;;;;;;1.15;0.70;;;;;;;;;;5052639;28;20150;-62
2022/07/06 05:02:48;;;;;;;2.17;0.70;;;;;;;;;;5051410;28;20380;-60
2022/07/06 05:05:13;;;;;;;2.07;0.60;;;;;;;;;;5052607;28;20365;-63
2022/07/06 05:07:41;;;;;;;0.60;0.60;;;;;;;;;;5052397;28;20033;-61
2022/07/06 05:10:10;;;;;;;0.98;0.60;;;;;;;;;;5051447;28;20291;-61
2022/07/06 05:12:35;;;;;;;3.35;1.10;;;;;;;;;;5052364;28;20025;-62
2022/07/06 05:15:01;;;;;;;1.83;1.30;;;;;;;;;;5051219;28;20044;-61
2022/07/06 05:17:32;;;;;;;2.80;0.87;;;;;;;;;;5052660;28;20272;-64
2022/07/06 05:19:57;;;;;;;;;;;;;;;;;;5052718;28;20287;-63
2022/07/06 05:22:22;;;;;;;2.17;0.60;;;;;;;;;;5052121;28;19913;-63
2022/07/06 05:24:48;;;;;;;1.27;0.65;;;;;;;;;;5050923;28;20025;-61
2022/07/06 05:27:13;;;;;;;2.20;0.80;;;;;;;;;;5052005;28;20041;-61
2022/07/06 05:29:38;;;;;;;1.47;0.40;;;;;;;;;;5052136;28;20281;-61
2022/07/06 05:32:03;;;;;;;4.20;0.75;;;;;;;;;;5051888;28;20287;-63
2022/07/06 05:34:29;;;;;;;1.60;0.63;;;;;;;;;;5050558;28;20443;-62
2022/07/06 05:36:54;;;;;;;1.10;1.00;;;;;;;;;;5051775;28;20129;-63
2022/07/06 05:39:19;;;;;;;1.85;0.70;;;;;;;;;;5051763;28;20279;-62
2022/07/06 05:41:45;;;;;;;1.02;0.60;;;;;;;;;;5051755;28;20032;-62
2022/07/06 05:44:10;;;;;;;3.08;0.60;;;;;;;;;;5051952;28;20037;-60
2022/07/06 05:46:35;;;;;;;2.35;0.70;;;;;;;;;;5051841;28;20033;-61
2022/07/06 05:51:44;;;;;;;2.38;0.57;;;;;;;;;;5051625;28;20302;-61
2022/07/06 05:54:10;;;;;;;1.80;0.63;;;;;;;;;;5051381;28;20041;-62
2022/07/06 05:56:35;;;;;;;1.10;0.67;;;;;;;;;;5051644;28;20037;-63
2022/07/06 05:59:00;;;;;;;1.47;0.43;;;;;;;;;;5050979;28;20392;-57
2022/07/06 06:01:25;;;;;;;0.70;0.50;;;;;;;;;;5051436;28;20685;-63
2022/07/06 06:03:50;;;;;;;2.43;0.70;;;;;;;;;;5050927;28;20287;-62
2022/07/06 06:06:16;;;;;;;2.63;0.77;;;;;;;;;;5051364;28;20298;-62
2022/07/06 06:08:41;;;;;;;0.45;0.45;;;;;;;;;;5050928;28;20353;-62
2022/07/06 06:11:06;;;;;;;1.30;0.50;;;;;;;;;;5049994;28;20037;-61
2022/07/06 06:13:32;;;;;;;1.58;0.90;;;;;;;;;;5051259;28;20033;-63
2022/07/06 06:15:57;;;;;;;8.23;0.80;;;;;;;;;;5051140;28;20087;-63
2022/07/06 06:18:22;;;;;;;1.77;0.93;;;;;;;;;;5051284;28;20033;-64
2022/07/06 06:20:47;;;;;;;1.17;0.50;;;;;;;;;;5050946;28;20098;-62
2022/07/06 06:23:13;;;;;;;1.55;0.60;;;;;;;;;;5051252;28;20291;-62
2022/07/06 06:25:39;;;;;;;1.13;0.60;;;;;;;;;;5051462;28;20392;-62
2022/07/06 06:28:05;;;;;;;1.17;0.57;;;;;;;;;;5051329;28;20450;-62
2022/07/06 06:30:31;;;;;;;1.30;0.47;;;;;;;;;;5051091;28;20033;-62
2022/07/06 06:33:22;;;;;;;0.68;0.60;;;;;;;;;;5050824;28;20405;-64
2022/07/06 06:35:49;;;;;;;2.80;0.80;;;;;;;;;;5048900;28;20375;-61
2022/07/06 06:38:14;;;;;;;2.95;0.82;;;;;;;;;;5051163;28;20032;-61
2022/07/06 06:40:39;;;;;;;1.52;0.70;;;;;;;;;;5046291;28;20029;-64
2022/07/06 06:43:05;;;;;;;0.93;0.40;;;;;;;;;;5042951;28;20079;-63
2022/07/06 06:45:30;;;;;;;1.60;0.60;;;;;;;;;;5052054;28;20403;-62
2022/07/06 06:47:56;;;;;;;1.33;0.50;;;;;;;;;;5032690;28;20481;-62
2022/07/06 06:50:23;;;;;;;1.02;0.43;;;;;;;;;;5032325;28;20037;-62
2022/07/06 06:52:48;;;;;;;2.28;0.40;;;;;;;;;;5032161;28;20125;-62
2022/07/06 06:55:14;;;;;;;1.15;0.60;;;;;;;17.30;nan;102552.69;5032199;28;20057;-61
2022/07/06 06:57:40;;;;;;;1.50;0.70;;;;;;;17.68;nan;102594.91;5032090;28;20041;-68
2022/07/06 07:00:06;;;;;;;0.80;0.65;;;;;;;17.75;nan;102600.88;5049609;28;20480;-65
2022/07/06 07:02:33;;;;;;;1.38;0.40;;;;;;;17.80;nan;102591.84;5026036;28;20128;-62
2022/07/06 07:05:04;;;;;;;2.65;0.60;;;;;;;17.58;nan;102544.66;5047578;28;20044;-65
2022/07/06 07:07:29;;;;;;;1.80;0.80;;;;;;;17.93;nan;102610.91;5045043;28;20052;-65
2022/07/06 07:09:55;;;;;;;0.40;0.25;;;;;;;17.85;nan;102575.69;5031228;28;20035;-63
2022/07/06 07:12:20;;;;;;;1.00;0.55;;;;;;;18.07;nan;102599.78;5030925;28;20029;-64
2022/07/06 07:14:45;;;;;;;2.13;0.45;;;;;;;18.26;nan;102596.38;5031437;28;20036;-63
2022/07/06 07:17:12;;;;;;;1.80;0.50;;;;;;;18.23;nan;102585.84;5031426;28;20048;-64
2022/07/06 07:19:38;;;;;;;1.83;0.32;;;;;;;18.36;nan;102600.44;5035429;28;20529;-65
2022/07/06 07:22:03;;;;;;;0.50;0.40;;;;;;;18.31;nan;102594.41;5050453;28;20100;-64
2022/07/06 07:24:29;;;;;;;0.73;0.40;;;;;;;18.49;nan;102617.78;5047612;28;20472;-61
2022/07/06 07:26:54;;;;;;;1.33;0.52;;;;;;;18.60;nan;102601.34;5031421;28;20489;-63
2022/07/06 07:29:19;;;;;;;0.90;0.32;;;;;;;18.61;nan;102605.78;5031689;28;20469;-63
2022/07/06 07:31:45;;;;;;;1.33;0.50;;;;;;;18.73;nan;102612.44;5031227;28;20108;-62
2022/07/06 07:34:10;;;;;;;1.58;0.70;;;;;;;18.47;nan;102555.59;5033488;28;20058;-64
2022/07/06 07:36:36;;;;;;;0.85;0.50;;;;;;;18.69;nan;102552.13;5035075;28;20029;-63
2022/07/06 07:39:02;;;;;;;1.35;0.65;;;;;;;18.90;nan;102544.16;5036271;28;20480;-64
2022/07/06 07:41:27;;;;;;;1.50;0.40;;;;;;;19.25;nan;102611.25;5044475;28;20037;-65
2022/07/06 07:43:53;;;;;;;0.47;0.40;;;;;;;19.74;nan;102605.63;5034864;28;20494;-63
2022/07/06 07:46:18;;;;;;;2.00;0.43;;;;;;;20.14;nan;102604.75;5047690;28;20037;-66
2022/07/06 07:48:43;;;;;;;2.40;0.40;;;;;;;20.46;nan;102620.25;5053879;28;20036;-63
2022/07/06 07:51:08;;;;;;;1.00;0.40;;;;;;;20.46;nan;102560.56;5048281;28;20033;-61
2022/07/06 07:53:34;;;;;;;1.77;0.38;;;;;;;21.11;nan;102571.69;5041755;28;20041;-63
2022/07/06 07:56:00;;;;;;;0.50;0.40;;;;;;;21.57;nan;102623.84;5033962;28;20873;-65
2022/07/06 07:58:26;;;;;;;0.65;0.30;;;;;;;21.44;nan;102561.13;5031661;28;20049;-65
2022/07/06 08:00:52;;;;;;;1.65;0.40;;;;;;;21.96;nan;102610.25;5032957;28;20472;-63
2022/07/06 08:03:17;;;;;;;0.47;0.20;;;;;;;21.69;nan;102607.16;5031320;28;21108;-63
2022/07/06 08:05:42;;;;;;;0.30;0.30;;;;;;;21.41;nan;102509.50;5032534;28;20092;-66
2022/07/06 08:08:08;;;;;;;1.88;0.57;;;;;;;21.96;nan;102609.38;5033041;28;20045;-64
2022/07/06 08:10:33;;;;;;;0.82;0.40;;;;;;;22.11;nan;102555.81;5032234;28;20033;-63
2022/07/06 08:12:58;;;;;;;1.73;0.32;;;;;;;22.31;nan;102557.44;5030898;28;20079;-64
2022/07/06 08:15:24;;;;;;;0.50;0.30;;;;;;;22.40;nan;102548.88;5030589;28;20350;-63
2022/07/06 08:17:49;;;;;;;1.85;0.47;;;;;;;21.79;nan;102482.44;5031573;28;20041;-63
2022/07/06 08:20:14;;;;;;;0.63;0.32;;;;;;;22.59;nan;102586.31;5032051;28;20092;-64
2022/07/06 08:22:42;;;;;;;1.27;0.40;;;;;;;22.35;nan;102538.41;5031949;28;20532;-65
2022/07/06 08:25:07;;;;;;;2.20;0.30;;;;;;;22.26;nan;102556.81;5014793;28;20469;-64
2022/07/06 08:27:34;;;;;;;2.53;0.52;;;;;;;22.23;nan;102559.66;5035834;28;20658;-64
2022/07/06 08:30:00;;;;;;;0.63;0.30;;;;;;;21.78;nan;102604.00;5032555;28;20151;-65
2022/07/06 08:32:25;;;;;;;1.67;0.50;;;;;;;21.37;nan;102546.28;5055910;28;20053;-63
2022/07/06 08:34:51;;;;;;;1.17;0.40;;;;;;;21.34;nan;102541.09;5033683;28;20048;-63
2022/07/06 08:37:16;;;;;;;0.65;0.20;;;;;;;21.62;nan;102604.88;5034146;28;20096;-64
2022/07/06 08:39:41;;;;;;;1.13;0.35;;;;;;;21.55;nan;102595.41;5052067;28;20036;-63
2022/07/06 08:42:07;;;;;;;1.58;0.70;;;;;;;20.95;nan;102541.25;5052862;28;20049;-64
2022/07/06 08:44:35;;;;;;;2.28;0.50;;;;;;;20.95;nan;102602.81;5050873;28;20495;-64
2022/07/06 08:47:03;;;;;;;1.27;0.50;;;;;;;20.70;nan;102597.72;5051850;28;20431;-64
2022/07/06 08:49:30;;;;;;;0.68;0.40;;;;;;;20.56;nan;102596.66;5051077;28;20032;-63
2022/07/06 08:51:56;;;;;;;1.35;0.30;;;;;;;20.28;nan;102548.03;5050530;28;20523;-64
2022/07/06 08:54:22;;;;;;;0.45;0.30;;;;;;;19.91;nan;102532.75;5049932;28;20052;-63
2022/07/06 08:56:48;;;;;;;0.75;0.30;;;;;;;20.21;nan;102567.00;5049815;28;20112;-64
2022/07/06 08:59:13;;;;;;;0.75;0.45;;;;;;;20.48;nan;102590.78;5048295;28;20116;-64
2022/07/06 09:01:39;;;;;;;0.85;0.50;;;;;;;20.73;nan;102596.72;5051425;28;20033;-64
2022/07/06 09:04:09;;;;;;;1.85;0.40;;;;;;;20.75;nan;102594.88;5049306;28;20036;-62
2022/07/06 09:06:35;;;;;;;3.80;0.40;;;;;;;20.78;nan;102600.91;5033886;28;20032;-63
2022/07/06 09:09:05;;;;;;;2.15;0.40;;;;;;;20.37;nan;102535.13;5049806;28;20384;-63
2022/07/06 09:11:30;;;;;;;3.22;0.30;;;;;;;20.86;nan;102597.91;5049712;28;20036;-65
2022/07/06 09:13:56;;;;;;;0.45;0.20;;;;;;;20.84;nan;102564.13;5049414;28;20041;-63
2022/07/06 09:16:28;;;;;;;0.95;0.40;;;;;;;21.06;nan;102568.34;5050987;28;20036;-64
2022/07/06 09:18:53;;;;;;;0.52;0.38;;;;;;;21.33;nan;102587.59;5049290;28;20029;-62
2022/07/06 09:21:24;;;;;;;0.73;0.32;;;;;;;21.03;nan;102543.53;5049378;28;20044;-64
2022/07/06 09:24:02;;;;;;;0.98;0.50;;;;;;;21.28;nan;102593.16;5032168;28;20048;-64
2022/07/06 09:26:27;;;;;;;1.23;0.32;;;;;;;20.94;nan;102534.13;5048952;28;20156;-65
2022/07/06 09:28:55;;;;;;;2.20;0.38;;;;;;;21.59;nan;102607.72;5016465;28;20140;-64
2022/07/06 09:31:21;;;;;;;1.55;0.40;;;;;;;21.78;nan;102608.50;5049991;28;20098;-63
2022/07/06 09:34:01;;;;;;;1.05;0.30;;;;;;;22.05;nan;102625.88;5051827;28;20136;-63
2022/07/06 09:36:46;;;;;;;1.38;0.45;;;;;;;22.25;nan;102614.09;5050357;28;20115;-65
2022/07/06 09:39:18;;;;;;;1.67;1.17;;;;;;;22.29;nan;102631.78;5051766;28;20519;-64
2022/07/06 09:41:44;;;;;;;2.03;0.30;;;;;;;22.30;nan;102610.22;5050007;28;20534;-63
2022/07/06 09:44:10;;;;;;;1.88;0.40;;;;;;;22.48;nan;102621.78;5051243;28;20082;-63
2022/07/06 09:46:43;;;;;;;0.65;0.40;;;;;;;22.56;nan;102626.75;5051236;28;20029;-64
2022/07/06 09:49:08;;;;;;;0.75;0.45;;;;;;;22.07;nan;102561.41;5050087;28;20067;-64
2022/07/06 09:51:37;;;;;;;0.40;0.30;;;;;;;22.54;nan;102631.31;5050989;28;20065;-66
2022/07/06 09:54:08;;;;;;;3.20;0.50;;;;;;;22.69;nan;102617.09;5050838;28;20068;-66
2022/07/06 09:56:41;;;;;;;1.48;0.60;;;;;;;22.48;nan;102573.47;5049269;28;20162;-65
2022/07/06 09:59:14;;;;;;;1.52;0.60;;;;;;;22.86;nan;102623.25;5049846;28;20041;-60
2022/07/06 10:01:40;;;;;;;1.17;0.50;;;;;;;23.34;nan;102589.19;5049995;28;20036;-65
2022/07/06 10:04:06;;;;;;;1.25;0.50;;;;;;;24.19;nan;102619.97;5051290;28;20033;-64
2022/07/06 10:06:32;;;;;;;1.00;0.40;;;;;;;24.58;nan;102605.81;5049561;28;20029;-65
2022/07/06 10:08:58;;;;;;;1.13;0.40;;;;;;;24.75;nan;102619.06;5051083;28;20086;-64
2022/07/06 10:11:25;;;;;;;1.77;0.75;;;;;;;24.64;nan;102616.19;5049838;28;20396;-62
2022/07/06 10:13:54;;;;;;;1.60;0.40;;;;;;;23.79;nan;102548.00;5050800;28;20025;-65
2022/07/06 10:16:22;;;;;;;2.72;0.60;;;;;;;23.37;nan;102624.81;5050426;28;20020;-64
2022/07/06 10:18:49;;;;;;;1.13;0.68;;;;;;;23.21;nan;102625.78;5049513;28;20146;-64
2022/07/06 10:21:15;;;;;;;1.48;0.50;;;;;;;23.96;nan;102621.28;5049499;28;20484;-62
2022/07/06 10:23:41;;;;;;;2.03;0.70;;;;;;;24.20;nan;102593.91;5048148;28;20144;-64
2022/07/06 10:26:06;;;;;;;2.22;0.70;;;;;;;25.30;nan;102605.63;5048913;28;20072;-65
2022/07/06 10:28:32;;;;;;;1.02;0.70;;;;;;;25.53;nan;102604.09;5049030;28;20116;-65
2022/07/06 10:30:57;;;;;;;1.17;0.60;;;;;;;25.33;nan;102605.41;5050413;28;20037;-64
2022/07/06 10:33:23;;;;;;;1.30;0.65;;;;;;;25.54;nan;102605.84;5049551;28;20126;-64
2022/07/06 10:35:49;;;;;;;1.20;0.57;;;;;;;25.60;nan;102559.56;5050424;28;20443;-63
2022/07/06 10:38:14;;;;;;;1.15;1.05;;;;;;;26.20;nan;102552.66;5049401;28;20040;-64
2022/07/06 10:43:35;;;;;;;3.13;0.70;;;;;;;27.21;nan;102586.66;5050540;28;20063;-64
2022/07/06 10:46:06;;;;;;;1.90;0.50;;;;;;;27.70;nan;102591.97;5050736;28;20064;-66
2022/07/06 10:48:36;;;;;;;1.27;0.40;;;;;;;27.41;nan;102601.41;5050561;28;20245;-61
2022/07/06 10:51:04;;;;;;;2.08;0.50;;;;;;;27.44;nan;102593.09;5049293;28;20052;-63
2022/07/06 10:53:35;;;;;;;1.95;0.73;;;;;;;27.36;nan;102589.06;5050258;28;20039;-62
2022/07/06 10:56:03;;;;;;;1.35;0.65;;;;;;;27.84;nan;102608.84;5049408;28;20372;-65
2022/07/06 10:58:42;;;;;;;1.50;0.80;;;;;;;28.07;nan;102542.13;5050602;28;20029;-63
2022/07/06 11:01:10;;;;;;;2.63;0.80;;;;;;;27.76;nan;102521.09;5050508;28;20037;-64
2022/07/06 11:03:48;;;;;;;2.20;0.60;;;;;;;27.41;nan;102561.66;5049956;28;20045;-63
2022/07/06 11:06:17;;;;;;;2.80;0.65;;;;;;;26.86;nan;102570.34;5048627;28;20029;-64
2022/07/06 11:08:48;;;;;;;2.88;0.75;;;;;;;27.09;nan;102523.56;5035283;28;20566;-65
2022/07/06 11:11:20;;;;;;;2.22;0.60;;;;;;;28.25;nan;102577.69;5053129;28;20036;-63
2022/07/06 11:13:50;;;;;;;1.15;0.60;;;;;;;28.80;nan;102566.88;5052589;28;20501;-66
2022/07/06 11:16:16;;;;;;;;;;;;;;;28.98;nan;102562.63;5054025;28;20037;-64
2022/07/06 11:18:47;;;;;;;2.25;0.57;;;;;;;29.63;nan;102558.09;5053645;28;19966;-65
2022/07/06 11:21:20;;;;;;;1.65;0.60;;;;;;;30.02;nan;102550.09;5052963;28;20408;-63
2022/07/06 11:23:47;;;;;;;1.65;0.70;;;;;;;30.13;nan;102544.56;5051235;28;20491;-65
2022/07/06 11:26:13;;;;;;;3.75;0.80;;;;;;;29.93;nan;102552.75;5053888;28;20388;-63
2022/07/06 11:28:38;;;;;;;1.27;0.60;;;;;;;30.08;nan;102506.09;5052750;28;20025;-64
2022/07/06 11:31:04;;;;;;;1.33;0.55;;;;;;;30.05;nan;102548.97;5051674;28;20036;-65
2022/07/06 11:33:30;;;;;;;3.42;1.20;;;;;;;30.51;nan;102527.59;5052912;28;20448;-65
2022/07/06 11:36:19;;;;;;;0.70;0.55;;;;;;;30.47;nan;102534.28;5053826;28;20467;-60
2022/07/06 11:38:46;;;;;;;2.25;0.60;;;;;;;30.98;nan;102525.16;5051939;28;20400;-59
2022/07/06 11:41:14;;;;;;;3.90;0.80;;;;;;;31.06;nan;102539.75;5053405;28;20041;-61
2022/07/06 11:43:44;;;;;;;1.80;1.10;;;;;;;30.11;nan;102545.72;5052264;28;20094;-60
2022/07/06 11:46:34;;;;;;;1.35;0.60;;;;;;;29.14;nan;102537.81;5052058;28;20040;-62
2022/07/06 11:49:04;;;;;;;3.67;1.05;;;;;;;28.46;nan;102533.50;5048051;28;20132;-62
2022/07/06 11:51:31;;;;;;;3.88;0.90;;;;;;;27.83;nan;102547.59;5052300;28;20036;-63
2022/07/06 11:54:02;;;;;;;2.35;0.65;;;;;;;27.15;nan;102524.94;5051468;28;20044;-62
2022/07/06 11:56:28;;;;;;;3.00;0.60;;;;;;;26.78;nan;102545.72;5051888;28;20078;-66
2022/07/06 11:58:58;;;;;;;3.13;0.70;;;;;;;26.73;nan;102546.06;5051785;28;20032;-65
2022/07/06 12:01:27;;;;;;;1.77;0.73;;;;;;;26.23;nan;102536.22;5052965;28;20040;-65
2022/07/06 12:03:53;;;;;;;2.95;0.60;;;;;;;26.05;nan;102540.19;5051703;28;20043;-66
2022/07/06 12:06:21;;;;;;;3.30;0.63;;;;;;;25.63;nan;102483.84;5052856;28;20044;-63
2022/07/06 12:08:51;;;;;;;1.63;0.80;;;;;;;25.82;nan;102505.88;5034554;28;20539;-64
2022/07/06 12:11:19;;;;;;;2.88;0.90;;;;;;;25.71;nan;102555.16;5051788;28;20043;-64
2022/07/06 12:13:44;;;;;;;2.67;0.50;;;;;;;26.02;nan;102544.94;5052511;28;20491;-64
2022/07/06 12:16:11;;;;;;;2.95;0.75;;;;;;;26.39;nan;102529.69;5052652;28;20112;-64
2022/07/06 12:18:38;;;;;;;2.95;0.90;;;;;;;26.66;nan;102533.09;5052170;28;20056;-64
2022/07/06 12:21:06;;;;;;;2.83;1.15;;;;;;;26.26;nan;102498.22;5051533;28;20044;-64
2022/07/06 12:23:43;;;;;;;3.22;0.75;;;;;;;26.07;nan;102508.56;5052436;28;20124;-63
2022/07/06 12:26:09;;;;;;;1.25;0.80;;;;;;;26.12;nan;102486.66;5051344;28;20048;-63
2022/07/06 12:28:35;;;;;;;2.03;0.75;;;;;;;25.98;nan;102519.13;5052747;28;20057;-60
2022/07/06 12:31:00;;;;;;;10.45;1.40;;;;;;;26.07;nan;102524.75;5052675;28;20492;-61
2022/07/06 12:33:27;;;;;;;1.83;0.63;;;;;;;26.04;nan;102522.25;5052364;28;20052;-63
2022/07/06 12:35:53;;;;;;;1.45;0.90;;;;;;;26.07;nan;102530.16;5052334;28;20036;-63
2022/07/06 12:38:26;;;;;;;2.72;0.80;;;;;;;26.14;nan;102534.19;5052236;28;20395;-63